< Typhoon 196621 1966 Season Typhoon 196623 >
Typhoon 196622 (FLOSSIE)
General InformationTrack Information on Google Maps || NewsDisaster Info.ResourceGoogle EarthGE AnimationAtom FeedGeoJSON
Detalied Best Track (Time Zone = UTC)
Year Month Day Hour Lat. Long. Pressure (hPa) Wind (kt) Class Image Chart
1966 9 9 06 16.0 151.0 1008 0 2 -- Chart
1966 9 9 12 15.9 149.5 1008 0 2 -- Chart
1966 9 9 18 15.9 148.0 1008 0 2 -- Chart
1966 9 10 00 15.9 147.0 1008 0 2 -- Chart
1966 9 10 06 16.0 146.0 1006 0 2 -- Chart
1966 9 10 12 16.1 145.0 1006 0 2 -- Chart
1966 9 10 18 16.5 144.5 1004 0 2 -- Chart
1966 9 11 00 17.0 143.6 1005 0 2 -- Chart
1966 9 11 06 18.0 144.0 1002 0 2 -- Chart
1966 9 11 12 19.0 144.3 1002 0 2 -- Chart
1966 9 11 18 20.0 144.1 1002 0 2 -- Chart
1966 9 12 00 20.4 143.5 1002 0 2 -- Chart
1966 9 12 06 21.0 142.5 1002 0 2 -- Chart
1966 9 12 12 21.5 141.5 1002 0 2 -- Chart
1966 9 12 18 21.5 140.5 1000 0 2 -- Chart
1966 9 13 00 21.5 139.5 998 0 9 -- Chart
1966 9 13 06 21.2 140.0 996 0 9 -- Chart
1966 9 13 12 21.1 140.7 994 0 9 -- Chart
1966 9 13 18 21.1 141.5 994 0 9 -- Chart
1966 9 14 00 21.1 142.0 994 0 9 -- Chart
1966 9 14 06 21.4 142.6 994 0 9 -- Chart
1966 9 14 12 21.8 143.0 994 0 9 -- Chart
1966 9 14 18 22.1 143.5 994 0 9 -- Chart
1966 9 15 00 22.7 144.0 992 0 9 -- Chart
1966 9 15 06 23.3 144.5 990 0 9 -- Chart
1966 9 15 12 24.0 145.0 985 0 9 -- Chart
1966 9 15 18 24.8 145.6 980 0 9 -- Chart
1966 9 16 00 25.9 145.9 975 0 9 -- Chart
1966 9 16 06 26.9 146.0 970 0 9 -- Chart
1966 9 16 12 28.0 146.5 970 0 9 -- Chart
1966 9 16 18 28.8 146.9 965 0 9 -- Chart
1966 9 17 00 29.7 147.3 965 0 9 -- Chart
1966 9 17 06 31.0 148.1 970 0 9 -- Chart
1966 9 17 12 32.2 149.4 988 0 9 -- Chart
1966 9 17 18 33.1 150.5 990 0 9 -- Chart
1966 9 18 00 34.0 151.8 992 0 9 -- Chart
1966 9 18 06 34.2 154.3 998 0 6 -- Chart
1966 9 18 12 34.4 156.8 1002 0 6 -- Chart
1966 9 18 18 34.0 159.0 1006 0 6 -- Chart
1966 9 19 00 34.0 161.0 1006 0 6 -- Chart
1966 9 19 06 34.0 163.0 1006 0 6 -- Chart
1966 9 19 12 34.0 164.9 1010 0 6 -- Chart
1966 9 19 18 34.0 166.5 1010 0 6 -- Chart
1966 9 20 00 34.0 168.1 1012 0 6 -- Chart
1966 9 20 06 34.0 169.8 1012 0 6 -- Chart
1966 9 20 12 34.2 171.6 1014 0 6 -- Chart
1966 9 20 18 34.6 173.5 1014 0 6 -- Chart
1966 9 21 00 35.0 175.6 1016 0 6 -- Chart
Japan Meteorological Agency Best Track Data | Correction Date : 1989-06-01
< Typhoon 196621 1966 Season Typhoon 196623 >

Help